Time;durP1;ratioP1;P1;durP2;ratioP2;P2;SDS_P1;SDS_P2;PMS_P1;PMS_P2;Temp;Humidity;BMP_temperature;BMP_pressure;BME280_temperature;BME280_humidity;BME280_pressure;Samples;Min_cycle;Max_cycle;Signal;HPM_P1;HPM_P2
2021/12/20 00:00:58;;;;;;;;;46.25;42.50;6.00;67.70;;;;;;5074394;28;8752;-75
2021/12/20 00:03:24;;;;;;;;;49.25;45.25;5.80;68.60;;;;;;5074457;28;8769;-76
2021/12/20 00:05:50;;;;;;;;;49.50;44.50;6.00;68.10;;;;;;5073688;28;8776;-76
2021/12/20 00:08:16;;;;;;;;;53.25;45.50;6.00;68.00;;;;;;5073064;28;8812;-75
2021/12/20 00:10:42;;;;;;;;;54.50;47.75;5.90;68.20;;;;;;5074508;28;8792;-75
2021/12/20 00:13:07;;;;;;;;;52.75;45.75;5.80;69.00;;;;;;5074734;28;9422;-75
2021/12/20 00:15:33;;;;;;;;;56.00;46.25;5.60;70.30;;;;;;5074532;28;8769;-76
2021/12/20 00:17:59;;;;;;;;;50.25;44.75;5.70;70.00;;;;;;5074311;28;8915;-78
2021/12/20 00:20:25;;;;;;;;;50.75;45.50;5.60;70.00;;;;;;5074673;28;8800;-74
2021/12/20 00:22:51;;;;;;;;;54.00;46.75;5.30;71.80;;;;;;5074301;28;8764;-76
2021/12/20 00:25:17;;;;;;;;;58.00;49.25;5.40;71.60;;;;;;5065903;28;8784;-75
2021/12/20 00:27:43;;;;;;;;;52.00;46.00;5.30;72.40;;;;;;5062386;28;8799;-75
2021/12/20 00:30:10;;;;;;;;;53.00;46.75;5.40;71.80;;;;;;5054158;28;8782;-74
2021/12/20 00:32:37;;;;;;;;;49.25;44.50;5.50;71.10;;;;;;5052657;28;9685;-75
2021/12/20 00:35:04;;;;;;;;;55.75;48.00;5.60;70.70;;;;;;5054166;28;8751;-75
2021/12/20 00:40:21;;;;;;;;;56.75;49.00;5.60;70.00;;;;;;5054182;28;8861;-75
2021/12/20 00:42:58;;;;;;;;;52.25;45.00;5.50;70.70;;;;;;5053111;28;8795;-75
2021/12/20 00:45:27;;;;;;;;;47.00;43.25;5.50;70.90;;;;;;5054072;28;8771;-75
2021/12/20 00:47:53;;;;;;;;;48.50;43.50;5.50;70.80;;;;;;5054019;28;8801;-75
2021/12/20 00:50:22;;;;;;;;;44.25;42.00;5.30;71.80;;;;;;5053890;28;8922;-75
2021/12/20 00:52:49;;;;;;;;;50.50;45.25;5.30;72.20;;;;;;5054068;28;8790;-74
2021/12/20 00:55:17;;;;;;;;;51.75;45.25;5.20;72.50;;;;;;5054208;28;8763;-75
2021/12/20 00:57:47;;;;;;;;;44.75;41.75;5.40;71.80;;;;;;5053799;28;8826;-75
2021/12/20 01:00:16;;;;;;;;;46.00;42.50;5.50;71.40;;;;;;5053787;28;8813;-75
2021/12/20 01:02:42;;;;;;;;;43.50;40.75;5.50;71.00;;;;;;5053925;28;8759;-74
2021/12/20 01:05:08;;;;;;;;;47.50;43.50;5.40;71.20;;;;;;5054045;28;8775;-75
2021/12/20 01:07:34;;;;;;;;;39.50;37.75;5.20;72.50;;;;;;5053646;28;8913;-76
2021/12/20 01:10:04;;;;;;;;;41.75;40.75;5.30;72.20;;;;;;5053764;28;8873;-76
2021/12/20 01:12:36;;;;;;;;;44.50;41.00;5.10;73.40;;;;;;5053878;28;8771;-75
2021/12/20 01:15:03;;;;;;;;;42.75;40.00;5.20;72.90;;;;;;5053877;28;8791;-75
2021/12/20 01:17:30;;;;;;;;;39.50;38.00;5.20;72.70;;;;;;5057244;28;8810;-75
2021/12/20 01:19:57;;;;;;;;;39.50;39.00;5.30;72.40;;;;;;5057809;28;8857;-74
2021/12/20 01:22:22;;;;;;;;;34.25;34.25;5.30;72.20;;;;;;5057609;28;8864;-75
2021/12/20 01:24:48;;;;;;;;;36.25;35.50;5.30;72.10;;;;;;5057341;28;8763;-75
2021/12/20 01:27:14;;;;;;;;;36.25;35.00;5.20;72.50;;;;;;5057367;28;9440;-75
2021/12/20 01:29:40;;;;;;;;;40.50;39.00;5.20;72.90;;;;;;5057262;28;9418;-75
2021/12/20 01:32:06;;;;;;;;;35.75;35.75;5.20;73.30;;;;;;5057145;28;8809;-76
2021/12/20 01:34:32;;;;;;;;;37.25;37.25;5.20;73.10;;;;;;5056141;28;8798;-74
2021/12/20 01:36:57;;;;;;;;;39.25;37.25;5.30;73.00;;;;;;5057284;28;8864;-73
2021/12/20 01:39:23;;;;;;;;;34.25;34.25;5.30;73.10;;;;;;5057017;28;8789;-76
2021/12/20 01:41:52;;;;;;;;;32.25;32.25;5.30;72.90;;;;;;5057284;28;8781;-76
2021/12/20 01:44:18;;;;;;;;;23.75;23.75;5.10;73.60;;;;;;5057055;28;8844;-74
2021/12/20 01:46:45;;;;;;;;;37.25;37.25;5.10;74.10;;;;;;5057268;28;8770;-73
2021/12/20 01:49:14;;;;;;;;;29.75;29.75;4.90;75.20;;;;;;5056963;28;8811;-73
2021/12/20 01:54:13;;;;;;;;;37.00;36.75;4.90;75.50;;;;;;5056844;28;8794;-73
2021/12/20 01:56:41;;;;;;;;;28.50;28.50;5.00;74.80;;;;;;5056929;28;8775;-73
2021/12/20 01:59:08;;;;;;;;;23.25;22.50;5.00;74.50;;;;;;5056954;28;8783;-74
2021/12/20 02:01:35;;;;;;;;;31.25;31.25;5.20;73.90;;;;;;5056981;28;9396;-73
2021/12/20 02:04:05;;;;;;;;;25.50;25.50;5.30;73.10;;;;;;5056691;28;8776;-74
2021/12/20 02:06:35;;;;;;;;;26.75;26.75;5.20;73.00;;;;;;5056512;28;8787;-74
2021/12/20 02:09:08;;;;;;;;;32.50;32.50;5.30;72.70;;;;;;5056537;28;8877;-74
2021/12/20 02:11:36;;;;;;;;;23.00;23.00;5.30;72.50;;;;;;5056466;28;8783;-75
2021/12/20 02:14:03;;;;;;;;;23.25;23.00;5.40;71.80;;;;;;5056461;28;8779;-74
2021/12/20 02:16:28;;;;;;;;;26.50;26.50;5.30;72.60;;;;;;5056333;28;8774;-74
2021/12/20 02:18:54;;;;;;;;;26.50;26.50;5.30;72.80;;;;;;5056249;28;8803;-76
2021/12/20 02:21:20;;;;;;;;;24.75;23.75;5.30;72.60;;;;;;5056525;28;8783;-75
2021/12/20 02:23:47;;;;;;;;;21.25;21.25;5.30;72.40;;;;;;5056205;28;9549;-73
2021/12/20 02:26:16;;;;;;;;;22.00;22.00;5.40;72.30;;;;;;5056401;28;8767;-76
2021/12/20 02:28:46;;;;;;;;;20.25;20.25;5.50;71.40;;;;;;5055788;28;8791;-74
2021/12/20 02:39:18;;;;;;;;;17.00;17.00;5.40;71.90;;;;;;5056157;28;8763;-73
2021/12/20 02:41:44;;;;;;;;;17.50;17.50;5.40;71.60;;;;;;5056058;28;8802;-73
2021/12/20 02:44:17;;;;;;;;;21.00;21.00;5.40;71.50;;;;;;5055707;28;8767;-73
2021/12/20 02:46:50;;;;;;;;;20.25;20.25;5.30;71.60;;;;;;5055649;28;8782;-73
2021/12/20 02:49:21;;;;;;;;;20.25;20.25;5.30;71.70;;;;;;5055758;28;8868;-74
2021/12/20 02:51:50;;;;;;;;;16.25;16.25;5.40;71.40;;;;;;5055690;28;8739;-73
2021/12/20 02:54:19;;;;;;;;;24.75;24.75;5.50;71.00;;;;;;5055786;28;9443;-74
2021/12/20 02:56:46;;;;;;;;;19.75;19.75;5.30;71.90;;;;;;5055408;28;8819;-74
2021/12/20 02:59:12;;;;;;;;;24.50;24.50;5.30;72.00;;;;;;5055600;28;8787;-74
2021/12/20 03:01:43;;;;;;;;;19.25;19.25;5.20;72.40;;;;;;5055668;28;8813;-73
2021/12/20 03:04:09;;;;;;;;;22.25;20.50;5.40;71.50;;;;;;5055592;28;9507;-73
2021/12/20 03:06:52;;;;;;;;;15.75;15.75;5.40;71.60;;;;;;5055042;28;8815;-73
2021/12/20 03:09:21;;;;;;;;;19.50;19.50;5.50;70.50;;;;;;5055360;28;8862;-73
2021/12/20 03:11:55;;;;;;;;;21.25;21.25;5.50;71.00;;;;;;5055274;28;8786;-74
2021/12/20 03:14:29;;;;;;;;;19.50;19.50;5.50;70.20;;;;;;5055487;28;8790;-73
2021/12/20 03:16:56;;;;;;;;;21.50;21.50;5.50;70.80;;;;;;5055318;28;8929;-73
2021/12/20 03:19:21;;;;;;;;;19.25;19.25;5.60;69.60;;;;;;5055204;28;8944;-74
2021/12/20 03:21:47;;;;;;;;;21.00;21.00;5.80;68.80;;;;;;5053949;28;8893;-74
2021/12/20 03:24:13;;;;;;;;;17.50;17.50;5.60;69.40;;;;;;5055038;28;8755;-73
2021/12/20 03:26:39;;;;;;;;;21.00;21.00;5.50;70.20;;;;;;5054915;28;8840;-75
2021/12/20 03:29:05;;;;;;;;;23.00;23.00;5.40;70.30;;;;;;5054880;28;8771;-75
2021/12/20 03:31:31;;;;;;;;;19.50;19.50;5.40;70.40;;;;;;5055138;28;8762;-75
2021/12/20 03:33:58;;;;;;;;;17.50;17.50;5.40;70.30;;;;;;5054849;28;8904;-75
2021/12/20 03:36:24;;;;;;;;;21.00;20.75;5.50;70.50;;;;;;5055095;28;8759;-75
2021/12/20 03:38:50;;;;;;;;;19.00;19.00;5.40;70.40;;;;;;5054144;28;8779;-75
2021/12/20 03:41:16;;;;;;;;;20.75;20.00;5.30;70.50;;;;;;5054333;28;8770;-75
2021/12/20 03:43:42;;;;;;;;;19.25;19.25;5.30;70.60;;;;;;5054684;28;8767;-75
2021/12/20 03:46:08;;;;;;;;;19.00;19.00;5.50;69.40;;;;;;5054547;28;8802;-75
2021/12/20 03:48:34;;;;;;;;;14.75;14.75;5.50;69.60;;;;;;5054679;28;8807;-75
2021/12/20 03:51:01;;;;;;;;;19.75;19.75;5.40;69.90;;;;;;5054567;28;8797;-75
2021/12/20 03:53:28;;;;;;;;;22.00;22.00;5.30;70.20;;;;;;5053510;28;8906;-76
2021/12/20 03:55:54;;;;;;;;;19.25;19.25;5.30;70.40;;;;;;5054444;28;8794;-75
2021/12/20 03:58:21;;;;;;;;;23.00;23.00;5.30;71.00;;;;;;5054295;28;8807;-74
2021/12/20 04:00:47;;;;;;;;;21.25;21.25;5.30;70.20;;;;;;5055318;28;8771;-75
2021/12/20 04:03:14;;;;;;;;;24.00;24.00;5.30;70.10;;;;;;5067862;28;8795;-74
2021/12/20 04:05:41;;;;;;;;;24.75;24.75;5.50;69.20;;;;;;5070029;28;8851;-73
2021/12/20 04:08:07;;;;;;;;;21.25;21.25;5.30;70.20;;;;;;5074190;28;8816;-74
2021/12/20 04:10:33;;;;;;;;;20.00;20.00;5.40;69.80;;;;;;5074262;28;8795;-74
2021/12/20 04:12:59;;;;;;;;;20.50;20.50;5.30;69.50;;;;;;5074390;28;8741;-74
2021/12/20 04:15:25;;;;;;;;;18.25;18.25;5.40;69.70;;;;;;5074268;28;9414;-74
2021/12/20 04:17:51;;;;;;;;;16.25;16.25;5.50;69.20;;;;;;5074293;28;8796;-75
2021/12/20 04:20:17;;;;;;;;;14.00;14.00;5.50;69.30;;;;;;5074543;28;8827;-74
2021/12/20 04:22:43;;;;;;;;;16.00;16.00;5.60;68.60;;;;;;5074552;28;8782;-74
2021/12/20 04:25:09;;;;;;;;;19.50;19.50;5.70;67.80;;;;;;5074236;28;8768;-74
2021/12/20 04:27:35;;;;;;;;;17.50;17.50;5.80;67.10;;;;;;5074212;28;9801;-74
2021/12/20 04:30:09;;;;;;;;;18.00;18.00;5.60;68.00;;;;;;5074400;28;8768;-73
2021/12/20 04:32:35;;;;;;;;;17.00;17.00;5.70;67.60;;;;;;5074164;28;8772;-74
2021/12/20 04:35:01;;;;;;;;;18.00;18.00;5.60;67.80;;;;;;5074088;28;8768;-74
2021/12/20 04:37:27;;;;;;;;;16.75;16.75;5.40;69.50;;;;;;5074039;28;8818;-74
2021/12/20 04:39:53;;;;;;;;;15.25;15.25;5.50;68.10;;;;;;5074039;28;8861;-74
2021/12/20 04:42:19;;;;;;;;;14.50;14.50;5.40;68.40;;;;;;5074004;28;8769;-75
2021/12/20 04:44:45;;;;;;;;;16.00;16.00;5.50;68.90;;;;;;5074073;28;8759;-74
2021/12/20 04:47:10;;;;;;;;;14.50;14.50;5.60;67.90;;;;;;5074019;28;8784;-73
2021/12/20 04:49:36;;;;;;;;;10.00;10.00;5.50;67.80;;;;;;5074309;28;8826;-74
2021/12/20 04:52:02;;;;;;;;;18.75;18.75;5.40;68.30;;;;;;5076970;28;8863;-74
2021/12/20 04:54:28;;;;;;;;;10.50;10.50;5.20;69.10;;;;;;5078053;28;8772;-74
2021/12/20 04:56:54;;;;;;;;;14.00;14.00;5.10;69.90;;;;;;5078194;28;8808;-74
2021/12/20 04:59:19;;;;;;;;;10.50;10.50;5.20;69.60;;;;;;5077989;28;8860;-74
2021/12/20 05:01:45;;;;;;;;;10.00;10.00;5.20;69.20;;;;;;5067524;28;8867;-74
2021/12/20 05:04:12;;;;;;;;;10.50;10.50;5.30;68.80;;;;;;5057744;28;8759;-74
2021/12/20 05:06:37;;;;;;;;;10.50;10.50;5.40;68.30;;;;;;5057506;28;8786;-74
2021/12/20 05:09:05;;;;;;;;;11.00;11.00;5.30;68.70;;;;;;5067070;28;8788;-74
2021/12/20 05:11:33;;;;;;;;;9.00;9.00;5.40;68.30;;;;;;5077934;28;8790;-74
2021/12/20 05:14:00;;;;;;;;;10.00;10.00;5.30;68.40;;;;;;5077918;28;8798;-74
2021/12/20 05:16:26;;;;;;;;;4.50;4.50;5.40;68.40;;;;;;5077925;28;8757;-74
2021/12/20 05:18:52;;;;;;;;;10.00;10.00;5.30;69.30;;;;;;5076722;28;8840;-74
2021/12/20 05:21:18;;;;;;;;;9.00;9.00;5.50;68.20;;;;;;5077438;28;8771;-74
2021/12/20 05:23:44;;;;;;;;;7.00;7.00;5.50;67.90;;;;;;5076415;28;8799;-74
2021/12/20 05:26:10;;;;;;;;;8.00;8.00;5.60;67.70;;;;;;5063254;28;8782;-73
2021/12/20 05:28:35;;;;;;;;;9.75;9.75;5.60;67.30;;;;;;5057357;28;8871;-74
2021/12/20 05:31:01;;;;;;;;;9.25;9.25;5.70;66.80;;;;;;5039618;28;8905;-73
2021/12/20 05:33:27;;;;;;;;;7.00;7.00;5.90;66.20;;;;;;5057261;28;8851;-74
2021/12/20 05:35:54;;;;;;;;;6.25;6.25;5.90;66.10;;;;;;5057252;28;8869;-74
2021/12/20 05:38:20;;;;;;;;;8.50;8.50;5.80;66.10;;;;;;5057441;28;8811;-73
2021/12/20 05:40:46;;;;;;;;;7.50;7.50;5.80;66.10;;;;;;5066791;28;8786;-73
2021/12/20 05:43:12;;;;;;;;;7.00;7.00;5.90;65.60;;;;;;5069915;28;8795;-73
2021/12/20 05:45:37;;;;;;;;;11.00;11.00;5.90;65.70;;;;;;5065939;28;8763;-74
2021/12/20 05:48:04;;;;;;;;;9.50;9.50;5.90;65.90;;;;;;5066885;28;8780;-73
2021/12/20 05:50:30;;;;;;;;;11.75;11.75;5.80;65.80;;;;;;5067311;28;8826;-74
2021/12/20 05:52:55;;;;;;;;;9.00;9.00;5.90;65.60;;;;;;5064390;28;8775;-74
2021/12/20 05:55:21;;;;;;;;;6.00;6.00;5.90;65.70;;;;;;5059337;28;8792;-74
2021/12/20 05:57:47;;;;;;;;;9.00;9.00;6.00;65.40;;;;;;5065676;28;8815;-73
2021/12/20 06:00:17;;;;;;;;;10.00;10.00;6.00;65.40;;;;;;5063227;28;8802;-75
2021/12/20 06:02:46;;;;;;;;;9.00;9.00;6.10;65.20;;;;;;5062995;28;8783;-74
2021/12/20 06:05:12;;;;;;;;;10.50;10.50;6.10;65.00;;;;;;5056884;28;9457;-70
2021/12/20 06:07:41;;;;;;;;;10.00;10.00;5.90;65.60;;;;;;5056324;28;8902;-69
2021/12/20 06:10:11;;;;;;;;;11.00;11.00;6.00;65.50;;;;;;5057275;28;8783;-68
2021/12/20 06:12:39;;;;;;;;;5.00;5.00;6.00;65.40;;;;;;5055872;28;8852;-69
2021/12/20 06:15:05;;;;;;;;;8.25;8.25;6.00;65.50;;;;;;5056179;28;8769;-72
2021/12/20 06:17:31;;;;;;;;;7.75;7.75;6.00;65.40;;;;;;5056125;28;8814;-71
2021/12/20 06:19:57;;;;;;;;;7.00;7.00;6.10;65.30;;;;;;5056517;28;8910;-71
2021/12/20 06:22:23;;;;;;;;;9.25;9.25;6.20;65.10;;;;;;5056244;28;8775;-71
2021/12/20 06:24:49;;;;;;;;;10.25;10.25;6.00;65.20;;;;;;5056294;28;8781;-77
2021/12/20 06:27:14;;;;;;;;;10.00;10.00;6.00;65.40;;;;;;5055245;28;8802;-74
2021/12/20 06:29:40;;;;;;;;;10.00;10.00;5.90;65.90;;;;;;5056199;28;8902;-71
2021/12/20 06:32:06;;;;;;;;;6.25;6.25;5.90;65.90;;;;;;5056231;28;8775;-74
2021/12/20 06:34:32;;;;;;;;;10.75;10.75;6.10;65.30;;;;;;5056336;28;8782;-72
2021/12/20 06:36:58;;;;;;;;;11.00;11.00;6.10;65.20;;;;;;5056238;28;8833;-72
2021/12/20 06:39:24;;;;;;;;;10.50;10.50;6.10;65.50;;;;;;5056238;28;9557;-69
2021/12/20 06:41:50;;;;;;;;;14.00;14.00;6.10;65.10;;;;;;5055769;28;9437;-69
2021/12/20 06:44:17;;;;;;;;;10.00;10.00;6.10;65.20;;;;;;5055889;28;8775;-71
2021/12/20 06:46:44;;;;;;;;;10.00;10.00;6.30;65.00;;;;;;5055983;28;8747;-70
2021/12/20 06:49:11;;;;;;;;;14.75;14.75;6.40;64.30;;;;;;5055940;28;8798;-70
2021/12/20 06:51:43;;;;;;;;;14.50;14.50;6.50;64.00;;;;;;5055730;28;8794;-70
2021/12/20 06:54:14;;;;;;;;;14.00;14.00;6.50;63.50;;;;;;5055735;28;8778;-71
2021/12/20 06:56:40;;;;;;;;;13.50;13.50;6.40;64.20;;;;;;5055837;28;8770;-70
2021/12/20 06:59:06;;;;;;;;;15.75;15.75;6.30;64.50;;;;;;5055674;28;8814;-71
2021/12/20 07:01:32;;;;;;;;;11.75;11.75;6.10;65.90;;;;;;5055550;28;8798;-72
2021/12/20 07:04:01;;;;;;;;;12.75;12.75;6.20;65.50;;;;;;5055528;28;8759;-68
2021/12/20 07:06:26;;;;;;;;;17.50;17.50;6.20;65.40;;;;;;5054152;28;8874;-71
2021/12/20 07:08:52;;;;;;;;;37.75;37.25;6.40;65.00;;;;;;5055343;28;8786;-69
2021/12/20 07:11:18;;;;;;;;;43.75;40.25;6.30;65.90;;;;;;5055278;28;8794;-70
2021/12/20 07:13:44;;;;;;;;;28.75;28.75;6.40;65.30;;;;;;5055327;28;8759;-70
2021/12/20 07:16:10;;;;;;;;;36.00;35.00;6.50;64.40;;;;;;5055088;28;8800;-71
2021/12/20 07:18:36;;;;;;;;;26.00;26.00;6.70;64.10;;;;;;5055285;28;8905;-74
2021/12/20 07:21:02;;;;;;;;;29.25;28.00;6.70;63.80;;;;;;5055072;28;9425;-72
2021/12/20 07:23:28;;;;;;;;;36.00;36.00;6.80;64.10;;;;;;5055138;28;8771;-71
2021/12/20 07:25:54;;;;;;;;;29.00;28.00;7.10;63.00;;;;;;5055318;28;8767;-73
2021/12/20 07:28:20;;;;;;;;;16.25;16.25;7.10;62.40;;;;;;5054954;28;8763;-73
2021/12/20 07:30:47;;;;;;;;;12.50;12.50;6.80;62.60;;;;;;5055068;28;8848;-72
2021/12/20 07:33:12;;;;;;;;;12.00;12.00;6.50;63.70;;;;;;5054977;28;8779;-72
2021/12/20 07:35:40;;;;;;;;;16.25;16.25;6.30;65.10;;;;;;5055130;28;8767;-73
2021/12/20 07:38:10;;;;;;;;;15.00;15.00;6.30;65.50;;;;;;5055082;28;8791;-74
2021/12/20 07:40:36;;;;;;;;;11.25;11.25;6.20;65.80;;;;;;5055171;28;8789;-72
2021/12/20 07:43:02;;;;;;;;;15.50;15.50;6.20;66.20;;;;;;5054760;28;8787;-71
2021/12/20 07:45:28;;;;;;;;;14.25;14.25;6.20;66.40;;;;;;5054714;28;8845;-71
2021/12/20 07:47:54;;;;;;;;;11.00;11.00;6.30;65.80;;;;;;5054793;28;8870;-71
2021/12/20 07:50:21;;;;;;;;;15.25;15.25;6.40;65.80;;;;;;5054987;28;8811;-71
2021/12/20 07:52:47;;;;;;;;;14.25;14.25;6.40;65.20;;;;;;5054992;28;8775;-68
2021/12/20 07:55:13;;;;;;;;;16.00;16.00;6.50;64.90;;;;;;5054540;28;8782;-68
2021/12/20 07:57:39;;;;;;;;;18.50;17.50;6.60;64.70;;;;;;5054730;28;8811;-68
2021/12/20 08:00:10;;;;;;;;;16.00;16.00;6.60;64.70;;;;;;5054541;28;8774;-68
2021/12/20 08:02:36;;;;;;;;;12.75;12.75;6.60;64.30;;;;;;5054306;28;8779;-68
2021/12/20 08:05:02;;;;;;;;;13.00;13.00;6.60;64.10;;;;;;5054416;28;8783;-68
2021/12/20 08:07:28;;;;;;;;;14.50;14.50;6.60;63.60;;;;;;5054306;28;8791;-68
2021/12/20 08:09:54;;;;;;;;;12.75;12.75;6.60;63.90;;;;;;5054346;28;8793;-68
2021/12/20 08:12:20;;;;;;;;;16.75;16.75;6.50;64.00;;;;;;5054585;28;8774;-68
2021/12/20 08:14:46;;;;;;;;;14.50;14.50;6.40;64.80;;;;;;5054350;28;8755;-68
2021/12/20 08:17:12;;;;;;;;;14.75;14.75;6.30;65.50;;;;;;5054248;28;8815;-69
2021/12/20 08:19:38;;;;;;;;;16.00;16.00;6.50;64.80;;;;;;5054576;28;8802;-68
2021/12/20 08:22:05;;;;;;;;;13.25;13.25;6.50;64.90;;;;;;5054308;28;8783;-68
2021/12/20 08:24:31;;;;;;;;;11.50;11.50;6.40;65.30;;;;;;5054496;28;8771;-68
2021/12/20 08:26:56;;;;;;;;;16.50;16.50;6.50;65.20;;;;;;5060070;28;8807;-68
2021/12/20 08:29:23;;;;;;;;;18.25;18.25;6.60;65.00;;;;;;5061076;28;8795;-68
2021/12/20 08:31:51;;;;;;;;;14.25;14.25;6.70;64.50;;;;;;5061048;28;8778;-68
2021/12/20 08:34:17;;;;;;;;;18.00;18.00;6.80;63.80;;;;;;5060900;28;9463;-68
2021/12/20 08:36:43;;;;;;;;;18.00;18.00;6.80;63.80;;;;;;5060862;28;8781;-68
2021/12/20 08:39:09;;;;;;;;;19.00;19.00;6.90;63.80;;;;;;5060778;28;8779;-68
2021/12/20 08:41:35;;;;;;;;;29.50;29.50;7.00;63.40;;;;;;5060677;28;8774;-68
2021/12/20 08:44:01;;;;;;;;;25.00;25.00;7.20;62.50;;;;;;5060637;28;8885;-68
2021/12/20 08:46:27;;;;;;;;;33.50;33.50;7.30;61.80;;;;;;5060890;28;8775;-68
2021/12/20 08:48:56;;;;;;;;;25.00;25.00;7.40;61.10;;;;;;5060566;28;8823;-68
2021/12/20 08:51:25;;;;;;;;;36.25;35.75;7.70;59.40;;;;;;5060574;28;8928;-68
2021/12/20 08:53:51;;;;;;;;;33.25;33.25;7.80;59.00;;;;;;5060598;28;8783;-68
2021/12/20 08:56:17;;;;;;;;;30.25;30.25;7.90;58.50;;;;;;5060473;28;8759;-68
2021/12/20 08:58:44;;;;;;;;;33.75;33.50;8.00;58.20;;;;;;5060540;28;8905;-68
2021/12/20 09:01:10;;;;;;;;;24.75;24.75;7.80;57.90;;;;;;5060839;28;8836;-68
2021/12/20 09:03:36;;;;;;;;;32.00;32.00;7.80;58.00;;;;;;5060533;28;9561;-68
2021/12/20 09:06:02;;;;;;;;;21.00;21.00;7.70;57.50;;;;;;5060545;28;9437;-69
2021/12/20 09:08:30;;;;;;;;;25.75;25.25;7.40;58.10;;;;;;5060432;28;8872;-68
2021/12/20 09:10:56;;;;;;;;;22.75;22.75;7.60;58.30;;;;;;5060526;28;8793;-68
2021/12/20 09:13:22;;;;;;;;;31.75;31.75;8.00;58.40;;;;;;5060485;28;8893;-69
2021/12/20 09:15:48;;;;;;;;;33.00;33.00;8.10;56.50;;;;;;5060417;28;8778;-73
2021/12/20 09:18:14;;;;;;;;;33.75;32.75;8.20;56.70;;;;;;5060088;28;8909;-68
2021/12/20 09:20:41;;;;;;;;;23.75;23.75;8.00;56.70;;;;;;5060477;28;8778;-69
2021/12/20 09:23:07;;;;;;;;;21.75;21.75;7.70;57.20;;;;;;5060617;28;8775;-66
2021/12/20 09:25:41;;;;;;;;;25.25;25.25;7.80;56.60;;;;;;5060596;28;8786;-68
2021/12/20 09:28:10;;;;;;;;;25.50;23.50;7.80;56.30;;;;;;5060264;28;8774;-67
2021/12/20 09:30:38;;;;;;;;;28.75;27.75;7.60;56.50;;;;;;5060273;28;8839;-66
2021/12/20 09:33:04;;;;;;;;;31.50;31.25;7.30;56.90;;;;;;5060239;28;8781;-65
2021/12/20 09:35:31;;;;;;;;;30.75;30.75;7.60;56.70;;;;;;5060262;28;8752;-66
2021/12/20 09:37:57;;;;;;;;;35.50;35.25;7.60;56.90;;;;;;5057807;28;8941;-67
2021/12/20 09:40:32;;;;;;;;;30.00;30.00;7.50;57.80;;;;;;5057009;28;8782;-67
2021/12/20 09:43:01;;;;;;;;;22.50;22.50;7.50;56.80;;;;;;5056812;28;9377;-67
2021/12/20 09:45:28;;;;;;;;;28.75;28.75;7.50;56.70;;;;;;5056941;28;8762;-68
2021/12/20 09:47:53;;;;;;;;;22.00;22.00;7.80;56.70;;;;;;5057192;28;8767;-67
2021/12/20 09:50:19;;;;;;;;;27.75;27.75;7.80;56.10;;;;;;5057226;28;8803;-65
2021/12/20 09:52:46;;;;;;;;;28.25;28.25;7.60;56.60;;;;;;5056692;28;8775;-68
2021/12/20 09:55:15;;;;;;;;;22.75;22.75;7.60;56.80;;;;;;5056633;28;9179;-68
2021/12/20 09:57:42;;;;;;;;;26.25;26.25;7.80;57.50;;;;;;5056961;28;9579;-68
2021/12/20 10:00:10;;;;;;;;;20.50;20.00;8.10;56.80;;;;;;5056709;28;8822;-69
2021/12/20 10:02:36;;;;;;;;;16.00;16.00;8.00;54.60;;;;;;5056728;28;8763;-67
2021/12/20 10:05:02;;;;;;;;;20.00;20.00;8.20;53.90;;;;;;5056638;28;8809;-69
2021/12/20 10:07:29;;;;;;;;;20.50;20.50;8.70;54.20;;;;;;5056522;28;8802;-70
2021/12/20 10:09:56;;;;;;;;;31.00;25.25;8.90;53.50;;;;;;5056542;28;8767;-68
2021/12/20 10:12:26;;;;;;;;;17.00;14.67;10.40;49.30;;;;;;5056626;28;8834;-68
2021/12/20 10:15:05;;;;;;;;;19.67;16.67;9.90;45.40;;;;;;5053226;28;8790;-70
2021/12/20 10:17:52;;;;;;;;;18.67;18.67;12.20;46.60;;;;;;5056486;28;9661;-68
2021/12/20 10:20:24;;;;;;;;;17.33;16.33;16.30;37.30;;;;;;5056615;28;8798;-68
2021/12/20 10:22:54;;;;;;;;;17.33;17.33;18.60;33.70;;;;;;5056421;28;8747;-71
2021/12/20 10:25:30;;;;;;;;;16.33;14.67;18.30;32.20;;;;;;5056028;28;11493;-66
2021/12/20 10:28:05;;;;;;;;;24.33;24.00;16.40;34.30;;;;;;5056056;28;11486;-67
2021/12/20 10:30:39;;;;;;;;;25.67;25.67;17.30;33.00;;;;;;5056165;28;11517;-66
2021/12/20 10:33:09;;;;;;;;;18.75;18.75;19.00;30.00;;;;;;5055861;28;8851;-66
2021/12/20 10:35:51;;;;;;;;;17.25;17.25;23.20;27.30;;;;;;5055772;28;11513;-67
2021/12/20 10:38:33;;;;;;;;;12.50;12.50;24.70;25.10;;;;;;5055753;28;11532;-66
2021/12/20 10:41:12;;;;;;;;;18.50;18.50;22.20;25.10;;;;;;5055807;28;11474;-66
2021/12/20 10:44:00;;;;;;;;;22.33;22.33;16.60;29.80;;;;;;5055790;28;12173;-66
2021/12/20 10:46:29;;;;;;;;;20.33;20.33;16.00;33.30;;;;;;5066301;28;11513;-65
2021/12/20 10:49:14;;;;;;;;;14.00;14.00;13.90;35.70;;;;;;5073836;28;11518;-68
2021/12/20 10:52:06;;;;;;;;;17.00;17.00;11.60;39.80;;;;;;5072225;28;11518;-68
2021/12/20 10:54:42;;;;;;;;;14.33;14.33;10.50;43.60;;;;;;5073887;28;8879;-68
2021/12/20 10:57:08;;;;;;;;;13.00;13.00;9.60;45.10;;;;;;5074376;28;9008;-64
2021/12/20 10:59:36;;;;;;;;;21.00;21.00;10.90;43.70;;;;;;5074219;28;8772;-64
2021/12/20 11:04:38;;;;;;;;;24.00;24.00;11.40;41.20;;;;;;5074278;28;8918;-64
2021/12/20 11:09:37;;;;;;;;;20.33;20.33;14.30;34.70;;;;;;5074061;28;8754;-63
2021/12/20 11:12:13;;;;;;;;;13.33;13.33;11.30;40.60;;;;;;5074163;28;9407;-63
2021/12/20 11:14:43;;;;;;;;;16.33;16.33;10.90;42.40;;;;;;5071847;28;8757;-62
2021/12/20 11:17:12;;;;;;;;;17.33;17.33;10.20;43.80;;;;;;5074681;28;8808;-64
2021/12/20 11:19:40;;;;;;;;;17.33;17.33;12.70;41.70;;;;;;5073776;28;8792;-64
2021/12/20 11:22:14;;;;;;;;;20.33;18.67;14.00;40.40;;;;;;5070885;28;8773;-63
2021/12/20 11:24:46;;;;;;;;;17.67;17.67;15.00;36.00;;;;;;5073785;28;8780;-63
2021/12/20 11:27:18;;;;;;;;;29.67;29.67;14.20;36.50;;;;;;5072634;28;8961;-66
2021/12/20 11:29:47;;;;;;;;;21.67;18.67;15.60;35.90;;;;;;5075097;28;8768;-64
2021/12/20 11:32:13;;;;;;;;;18.00;17.75;22.00;30.00;;;;;;5074884;28;8773;-67
2021/12/20 11:34:41;;;;;;;;;8.50;8.50;26.30;25.40;;;;;;5075004;28;11466;-65
2021/12/20 11:37:09;;;;;;;;;16.00;16.00;26.90;23.80;;;;;;5074325;28;11452;-64
2021/12/20 11:39:35;;;;;;;;;22.00;22.00;25.60;24.20;;;;;;5074293;28;11496;-66
2021/12/20 11:42:01;;;;;;;;;19.25;19.25;22.80;25.20;;;;;;5074279;28;11501;-65
2021/12/20 11:44:29;;;;;;;;;21.00;19.67;17.70;28.90;;;;;;5074154;28;11493;-66
2021/12/20 11:47:14;;;;;;;;;24.00;24.00;14.80;33.60;;;;;;5074304;28;11476;-65
2021/12/20 11:49:39;;;;;;;;;15.00;15.00;13.30;37.60;;;;;;5074802;28;8792;-65
2021/12/20 11:52:15;;;;;;;;;18.00;18.00;13.60;37.70;;;;;;5074484;28;8803;-66
2021/12/20 11:54:53;;;;;;;;;16.00;15.00;18.30;32.30;;;;;;5074477;28;8764;-64
2021/12/20 11:57:28;;;;;;;;;12.00;12.00;22.60;27.80;;;;;;5074293;28;11529;-66
2021/12/20 12:00:00;;;;;;;;;10.25;10.25;25.50;24.50;;;;;;5074044;28;11489;-64
2021/12/20 12:02:28;;;;;;;;;11.25;11.25;26.50;23.20;;;;;;5072997;28;11461;-66
2021/12/20 12:04:59;;;;;;;;;1.50;1.50;24.70;24.90;;;;;;5074122;28;11479;-63
2021/12/20 12:07:27;;;;;;;;;7.00;7.00;19.80;25.40;;;;;;5074063;28;11461;-65
2021/12/20 12:10:01;;;;;;;;;12.67;12.67;13.90;34.20;;;;;;5074182;28;11458;-64
2021/12/20 12:12:28;;;;;;;;;17.67;17.67;12.30;38.20;;;;;;5074296;28;11537;-65
2021/12/20 12:15:07;;;;;;;;;14.33;13.67;14.20;40.40;;;;;;5074117;28;8772;-65
2021/12/20 12:17:53;;;;;;;;;11.67;11.67;18.50;31.20;;;;;;5074380;28;11457;-65
2021/12/20 12:20:40;;;;;;;;;16.00;16.00;18.60;31.00;;;;;;5074862;28;8918;-66
2021/12/20 12:23:10;;;;;;;;;14.00;14.00;14.70;33.70;;;;;;5074215;28;8771;-63
2021/12/20 12:25:44;;;;;;;;;20.00;20.00;13.70;36.00;;;;;;5074247;28;8756;-64
2021/12/20 12:28:12;;;;;;;;;10.00;10.00;12.90;38.80;;;;;;5074174;28;8776;-64
2021/12/20 12:30:40;;;;;;;;;12.33;12.00;16.80;35.10;;;;;;5073980;28;8879;-64
2021/12/20 12:33:11;;;;;;;;;10.67;10.67;18.20;32.80;;;;;;5072216;28;11495;-65
2021/12/20 12:35:38;;;;;;;;;17.67;17.67;16.70;31.40;;;;;;5072882;28;8850;-64
2021/12/20 12:38:31;;;;;;;;;21.33;21.33;13.60;36.80;;;;;;5073852;28;8803;-64
2021/12/20 12:41:31;;;;;;;;;16.33;16.33;12.70;39.80;;;;;;5074145;28;8776;-64
2021/12/20 12:44:19;;;;;;;;;13.33;13.33;17.20;35.70;;;;;;5073529;28;8795;-65
2021/12/20 12:46:47;;;;;;;;;11.67;11.67;18.90;31.00;;;;;;5074061;28;11453;-65
2021/12/20 12:49:26;;;;;;;;;20.33;20.33;16.20;31.60;;;;;;5073936;28;11504;-63
2021/12/20 12:51:51;;;;;;;;;14.00;14.00;14.30;36.00;;;;;;5073947;28;8772;-67
2021/12/20 12:54:32;;;;;;;;;8.67;8.67;15.00;36.90;;;;;;5073861;28;9120;-63
2021/12/20 12:57:10;;;;;;;;;18.33;18.33;13.50;36.50;;;;;;5073914;28;8760;-63
2021/12/20 12:59:47;;;;;;;;;21.00;21.00;12.30;39.90;;;;;;5074040;28;8883;-62
2021/12/20 13:02:24;;;;;;;;;18.67;18.67;11.80;41.10;;;;;;5073493;28;8768;-65
2021/12/20 13:04:54;;;;;;;;;16.67;16.67;11.40;42.40;;;;;;5072468;28;8780;-64
2021/12/20 13:07:22;;;;;;;;;19.00;19.00;10.80;43.20;;;;;;5073723;28;8826;-63
2021/12/20 13:09:49;;;;;;;;;23.67;23.67;12.20;40.30;;;;;;5073844;28;8775;-63